Mount Vernon, Arkansas
Current Conditions -  °F | °C
As of 7:08 AM on Thursday 18 Dec 2014 (Local Time) from KLRF Reporting Station
Overcast Overcast  
Wind Chill: 33°   Ceiling: 500
Heat Index: 37°   Visibility: 8mi
Dew Point: 36°   Wind: 6mph
Humidity: 93%   Direction: 30°NNE
Pressure: 30.23"   Gusts: NA
Location:  35.23°N, 92.12°W
Report Text: KLRF 181308Z AUTO 03005KT 8SM BKN005 OVC016 03/02 A3023 RMK AO2 CIG 005V015 BKN V FEW
Loading
Personal Weather Stations






























Interactive Weather Map New forecast layout! Learn more

10-Day Weather Forecast

Advertisements
Track Severe Weather on mobile